sensor_id;sensor_type;location;lat;lon;timestamp;P1;durP1;ratioP1;P2;durP2;ratioP2
30458;SDS011;74163;50.912;6.918;2024-03-07T00:00:20;42.85;;;27.48;;
30458;SDS011;74163;50.912;6.918;2024-03-07T00:00:52;44.03;;;27.02;;
30458;SDS011;74163;50.912;6.918;2024-03-07T00:01:24;42.13;;;27.70;;
30458;SDS011;74163;50.912;6.918;2024-03-07T00:01:56;47.17;;;29.50;;
30458;SDS011;74163;50.912;6.918;2024-03-07T00:02:28;43.53;;;27.63;;
30458;SDS011;74163;50.912;6.918;2024-03-07T00:02:59;44.63;;;28.98;;
30458;SDS011;74163;50.912;6.918;2024-03-07T00:03:32;46.40;;;28.17;;
30458;SDS011;74163;50.912;6.918;2024-03-07T00:04:03;43.95;;;28.48;;
30458;SDS011;74163;50.912;6.918;2024-03-07T00:04:35;42.40;;;27.50;;
30458;SDS011;74163;50.912;6.918;2024-03-07T00:05:07;43.72;;;28.58;;
30458;SDS011;74163;50.912;6.918;2024-03-07T00:05:39;43.17;;;27.60;;
30458;SDS011;74163;50.912;6.918;2024-03-07T00:06:11;45.22;;;28.90;;
30458;SDS011;74163;50.912;6.918;2024-03-07T00:06:43;44.33;;;27.45;;
30458;SDS011;74163;50.912;6.918;2024-03-07T00:07:14;44.00;;;28.45;;
30458;SDS011;74163;50.912;6.918;2024-03-07T00:07:46;46.22;;;28.15;;
30458;SDS011;74163;50.912;6.918;2024-03-07T00:08:18;45.80;;;27.95;;
30458;SDS011;74163;50.912;6.918;2024-03-07T00:08:50;44.03;;;28.35;;
30458;SDS011;74163;50.912;6.918;2024-03-07T00:09:22;47.47;;;30.05;;
30458;SDS011;74163;50.912;6.918;2024-03-07T00:09:54;46.10;;;28.63;;
30458;SDS011;74163;50.912;6.918;2024-03-07T00:10:26;44.60;;;28.85;;
30458;SDS011;74163;50.912;6.918;2024-03-07T00:10:59;45.38;;;28.77;;
30458;SDS011;74163;50.912;6.918;2024-03-07T00:11:31;42.00;;;27.05;;
30458;SDS011;74163;50.912;6.918;2024-03-07T00:12:03;45.95;;;28.75;;
30458;SDS011;74163;50.912;6.918;2024-03-07T00:12:35;45.25;;;29.17;;
30458;SDS011;74163;50.912;6.918;2024-03-07T00:13:08;46.20;;;28.05;;
30458;SDS011;74163;50.912;6.918;2024-03-07T00:13:40;46.90;;;29.15;;
30458;SDS011;74163;50.912;6.918;2024-03-07T00:14:12;45.50;;;28.77;;
30458;SDS011;74163;50.912;6.918;2024-03-07T00:14:44;47.47;;;28.73;;
30458;SDS011;74163;50.912;6.918;2024-03-07T00:15:16;46.13;;;29.83;;
30458;SDS011;74163;50.912;6.918;2024-03-07T00:15:47;43.40;;;28.27;;
30458;SDS011;74163;50.912;6.918;2024-03-07T00:16:19;44.47;;;27.73;;
30458;SDS011;74163;50.912;6.918;2024-03-07T00:16:51;42.75;;;26.35;;
30458;SDS011;74163;50.912;6.918;2024-03-07T00:17:23;46.70;;;29.42;;
30458;SDS011;74163;50.912;6.918;2024-03-07T00:17:55;51.53;;;30.25;;
30458;SDS011;74163;50.912;6.918;2024-03-07T00:18:27;46.13;;;28.58;;
30458;SDS011;74163;50.912;6.918;2024-03-07T00:19:00;45.35;;;29.33;;
30458;SDS011;74163;50.912;6.918;2024-03-07T00:19:32;44.05;;;28.58;;
30458;SDS011;74163;50.912;6.918;2024-03-07T00:20:04;47.97;;;29.42;;
30458;SDS011;74163;50.912;6.918;2024-03-07T00:20:37;45.47;;;28.80;;
30458;SDS011;74163;50.912;6.918;2024-03-07T00:21:09;51.50;;;31.20;;
30458;SDS011;74163;50.912;6.918;2024-03-07T00:21:41;47.10;;;28.73;;
30458;SDS011;74163;50.912;6.918;2024-03-07T00:22:12;44.50;;;27.55;;
30458;SDS011;74163;50.912;6.918;2024-03-07T00:22:44;46.95;;;29.45;;
30458;SDS011;74163;50.912;6.918;2024-03-07T00:23:16;44.30;;;27.52;;
30458;SDS011;74163;50.912;6.918;2024-03-07T00:23:48;44.00;;;27.25;;
30458;SDS011;74163;50.912;6.918;2024-03-07T00:24:21;44.72;;;28.67;;
30458;SDS011;74163;50.912;6.918;2024-03-07T00:24:53;48.75;;;29.73;;
30458;SDS011;74163;50.912;6.918;2024-03-07T00:25:25;47.75;;;29.63;;
30458;SDS011;74163;50.912;6.918;2024-03-07T00:25:58;47.28;;;29.23;;
30458;SDS011;74163;50.912;6.918;2024-03-07T00:26:30;43.65;;;27.83;;
30458;SDS011;74163;50.912;6.918;2024-03-07T00:27:02;41.63;;;26.65;;
30458;SDS011;74163;50.912;6.918;2024-03-07T00:27:34;43.33;;;27.80;;
30458;SDS011;74163;50.912;6.918;2024-03-07T00:28:06;46.20;;;29.15;;
30458;SDS011;74163;50.912;6.918;2024-03-07T00:28:38;49.40;;;30.15;;
30458;SDS011;74163;50.912;6.918;2024-03-07T00:29:10;51.33;;;30.07;;
30458;SDS011;74163;50.912;6.918;2024-03-07T00:29:42;47.92;;;29.23;;
30458;SDS011;74163;50.912;6.918;2024-03-07T00:30:14;45.63;;;28.77;;
30458;SDS011;74163;50.912;6.918;2024-03-07T00:30:46;44.53;;;28.52;;
30458;SDS011;74163;50.912;6.918;2024-03-07T00:31:17;47.38;;;29.23;;
30458;SDS011;74163;50.912;6.918;2024-03-07T00:31:49;44.88;;;28.08;;
30458;SDS011;74163;50.912;6.918;2024-03-07T00:32:21;41.28;;;26.60;;
30458;SDS011;74163;50.912;6.918;2024-03-07T00:32:53;42.05;;;27.00;;
30458;SDS011;74163;50.912;6.918;2024-03-07T00:33:25;49.45;;;30.15;;
30458;SDS011;74163;50.912;6.918;2024-03-07T00:34:13;42.95;;;27.15;;
30458;SDS011;74163;50.912;6.918;2024-03-07T00:34:54;43.83;;;27.10;;
30458;SDS011;74163;50.912;6.918;2024-03-07T00:35:25;43.33;;;26.88;;
30458;SDS011;74163;50.912;6.918;2024-03-07T00:35:57;42.45;;;27.10;;
30458;SDS011;74163;50.912;6.918;2024-03-07T00:36:30;50.60;;;30.90;;
30458;SDS011;74163;50.912;6.918;2024-03-07T00:37:02;51.10;;;30.65;;
30458;SDS011;74163;50.912;6.918;2024-03-07T00:37:34;48.33;;;29.50;;
30458;SDS011;74163;50.912;6.918;2024-03-07T00:38:06;45.28;;;28.70;;
30458;SDS011;74163;50.912;6.918;2024-03-07T00:38:38;43.53;;;27.13;;
30458;SDS011;74163;50.912;6.918;2024-03-07T00:39:09;45.30;;;27.33;;
30458;SDS011;74163;50.912;6.918;2024-03-07T00:39:41;45.60;;;28.17;;
30458;SDS011;74163;50.912;6.918;2024-03-07T00:40:14;43.72;;;28.60;;
30458;SDS011;74163;50.912;6.918;2024-03-07T00:40:46;46.05;;;28.70;;
30458;SDS011;74163;50.912;6.918;2024-03-07T00:41:19;42.28;;;26.48;;
30458;SDS011;74163;50.912;6.918;2024-03-07T00:41:51;44.08;;;28.67;;
30458;SDS011;74163;50.912;6.918;2024-03-07T00:42:23;45.55;;;29.27;;
30458;SDS011;74163;50.912;6.918;2024-03-07T00:42:55;45.60;;;28.73;;
30458;SDS011;74163;50.912;6.918;2024-03-07T00:43:27;44.42;;;28.05;;
30458;SDS011;74163;50.912;6.918;2024-03-07T00:43:58;46.13;;;28.45;;
30458;SDS011;74163;50.912;6.918;2024-03-07T00:44:30;46.28;;;29.05;;
30458;SDS011;74163;50.912;6.918;2024-03-07T00:45:02;43.35;;;28.17;;
30458;SDS011;74163;50.912;6.918;2024-03-07T00:45:34;43.30;;;27.65;;
30458;SDS011;74163;50.912;6.918;2024-03-07T00:46:06;44.70;;;28.75;;
30458;SDS011;74163;50.912;6.918;2024-03-07T00:46:38;44.53;;;27.98;;
30458;SDS011;74163;50.912;6.918;2024-03-07T00:47:10;47.33;;;29.87;;
30458;SDS011;74163;50.912;6.918;2024-03-07T00:47:42;49.47;;;29.27;;
30458;SDS011;74163;50.912;6.918;2024-03-07T00:48:14;51.63;;;30.58;;
30458;SDS011;74163;50.912;6.918;2024-03-07T00:48:46;48.30;;;30.13;;
30458;SDS011;74163;50.912;6.918;2024-03-07T00:49:18;50.08;;;31.48;;
30458;SDS011;74163;50.912;6.918;2024-03-07T00:49:49;53.17;;;32.03;;
30458;SDS011;74163;50.912;6.918;2024-03-07T00:50:22;51.97;;;30.73;;
30458;SDS011;74163;50.912;6.918;2024-03-07T00:50:53;51.65;;;31.50;;
30458;SDS011;74163;50.912;6.918;2024-03-07T00:51:25;52.13;;;31.13;;
30458;SDS011;74163;50.912;6.918;2024-03-07T00:51:57;52.90;;;31.15;;
30458;SDS011;74163;50.912;6.918;2024-03-07T00:52:29;47.42;;;29.63;;
30458;SDS011;74163;50.912;6.918;2024-03-07T00:53:01;49.42;;;31.13;;
30458;SDS011;74163;50.912;6.918;2024-03-07T00:53:33;53.95;;;32.15;;
30458;SDS011;74163;50.912;6.918;2024-03-07T00:54:05;49.08;;;29.20;;
30458;SDS011;74163;50.912;6.918;2024-03-07T00:54:38;47.90;;;28.63;;
30458;SDS011;74163;50.912;6.918;2024-03-07T00:55:10;47.47;;;29.63;;
30458;SDS011;74163;50.912;6.918;2024-03-07T00:55:42;49.13;;;29.63;;
30458;SDS011;74163;50.912;6.918;2024-03-07T00:56:14;47.47;;;29.65;;
30458;SDS011;74163;50.912;6.918;2024-03-07T00:56:47;45.85;;;28.65;;
30458;SDS011;74163;50.912;6.918;2024-03-07T00:57:19;44.65;;;27.45;;
30458;SDS011;74163;50.912;6.918;2024-03-07T00:57:51;45.65;;;27.50;;
30458;SDS011;74163;50.912;6.918;2024-03-07T00:58:23;45.83;;;27.63;;
30458;SDS011;74163;50.912;6.918;2024-03-07T00:58:54;45.55;;;27.88;;
30458;SDS011;74163;50.912;6.918;2024-03-07T00:59:26;49.40;;;29.10;;
30458;SDS011;74163;50.912;6.918;2024-03-07T00:59:58;49.35;;;30.00;;
30458;SDS011;74163;50.912;6.918;2024-03-07T01:00:30;48.13;;;29.10;;
30458;SDS011;74163;50.912;6.918;2024-03-07T01:01:02;48.40;;;30.20;;
30458;SDS011;74163;50.912;6.918;2024-03-07T01:01:34;47.47;;;28.65;;
30458;SDS011;74163;50.912;6.918;2024-03-07T01:02:06;48.17;;;28.35;;
30458;SDS011;74163;50.912;6.918;2024-03-07T01:02:38;42.95;;;26.88;;
30458;SDS011;74163;50.912;6.918;2024-03-07T01:03:10;44.28;;;27.05;;
30458;SDS011;74163;50.912;6.918;2024-03-07T01:03:42;45.20;;;28.67;;
30458;SDS011;74163;50.912;6.918;2024-03-07T01:04:14;47.42;;;29.35;;
30458;SDS011;74163;50.912;6.918;2024-03-07T01:04:46;46.10;;;29.00;;
30458;SDS011;74163;50.912;6.918;2024-03-07T01:05:18;45.13;;;27.17;;
30458;SDS011;74163;50.912;6.918;2024-03-07T01:05:50;43.25;;;26.63;;
30458;SDS011;74163;50.912;6.918;2024-03-07T01:06:22;43.42;;;27.02;;
30458;SDS011;74163;50.912;6.918;2024-03-07T01:06:53;48.00;;;29.48;;
30458;SDS011;74163;50.912;6.918;2024-03-07T01:07:25;51.15;;;28.83;;
30458;SDS011;74163;50.912;6.918;2024-03-07T01:07:57;48.45;;;30.02;;
30458;SDS011;74163;50.912;6.918;2024-03-07T01:08:29;48.30;;;29.60;;
30458;SDS011;74163;50.912;6.918;2024-03-07T01:09:01;49.58;;;30.42;;
30458;SDS011;74163;50.912;6.918;2024-03-07T01:09:33;51.50;;;30.85;;
30458;SDS011;74163;50.912;6.918;2024-03-07T01:10:05;53.80;;;31.48;;
30458;SDS011;74163;50.912;6.918;2024-03-07T01:10:37;47.92;;;29.25;;
30458;SDS011;74163;50.912;6.918;2024-03-07T01:11:09;49.10;;;30.10;;
30458;SDS011;74163;50.912;6.918;2024-03-07T01:11:42;51.38;;;30.98;;
30458;SDS011;74163;50.912;6.918;2024-03-07T01:12:17;48.30;;;29.80;;
30458;SDS011;74163;50.912;6.918;2024-03-07T01:12:49;47.38;;;27.83;;
30458;SDS011;74163;50.912;6.918;2024-03-07T01:13:20;49.35;;;30.35;;
30458;SDS011;74163;50.912;6.918;2024-03-07T01:13:52;47.17;;;29.75;;
30458;SDS011;74163;50.912;6.918;2024-03-07T01:14:24;52.90;;;31.00;;
30458;SDS011;74163;50.912;6.918;2024-03-07T01:14:56;46.97;;;29.48;;
30458;SDS011;74163;50.912;6.918;2024-03-07T01:15:28;45.10;;;27.45;;
30458;SDS011;74163;50.912;6.918;2024-03-07T01:16:00;49.28;;;29.73;;
30458;SDS011;74163;50.912;6.918;2024-03-07T01:16:31;50.15;;;30.55;;
30458;SDS011;74163;50.912;6.918;2024-03-07T01:17:04;52.75;;;31.55;;
30458;SDS011;74163;50.912;6.918;2024-03-07T01:17:36;53.22;;;30.65;;
30458;SDS011;74163;50.912;6.918;2024-03-07T01:18:08;45.55;;;29.55;;
30458;SDS011;74163;50.912;6.918;2024-03-07T01:18:40;50.95;;;29.42;;
30458;SDS011;74163;50.912;6.918;2024-03-07T01:19:12;47.72;;;29.67;;
30458;SDS011;74163;50.912;6.918;2024-03-07T01:19:44;48.80;;;30.17;;
30458;SDS011;74163;50.912;6.918;2024-03-07T01:20:16;51.90;;;30.03;;
30458;SDS011;74163;50.912;6.918;2024-03-07T01:20:47;48.42;;;29.33;;
30458;SDS011;74163;50.912;6.918;2024-03-07T01:21:19;44.53;;;28.23;;
30458;SDS011;74163;50.912;6.918;2024-03-07T01:21:51;48.05;;;28.63;;
30458;SDS011;74163;50.912;6.918;2024-03-07T01:22:23;48.25;;;29.73;;
30458;SDS011;74163;50.912;6.918;2024-03-07T01:22:55;44.75;;;29.63;;
30458;SDS011;74163;50.912;6.918;2024-03-07T01:23:27;46.58;;;27.88;;
30458;SDS011;74163;50.912;6.918;2024-03-07T01:23:59;47.90;;;28.40;;
30458;SDS011;74163;50.912;6.918;2024-03-07T01:24:30;45.00;;;28.27;;
30458;SDS011;74163;50.912;6.918;2024-03-07T01:25:02;45.85;;;28.95;;
30458;SDS011;74163;50.912;6.918;2024-03-07T01:25:35;47.83;;;29.75;;
30458;SDS011;74163;50.912;6.918;2024-03-07T01:26:07;44.80;;;28.88;;
30458;SDS011;74163;50.912;6.918;2024-03-07T01:26:39;48.63;;;28.58;;
30458;SDS011;74163;50.912;6.918;2024-03-07T01:27:10;53.47;;;30.63;;
30458;SDS011;74163;50.912;6.918;2024-03-07T01:27:44;48.92;;;30.20;;
30458;SDS011;74163;50.912;6.918;2024-03-07T01:28:16;49.55;;;29.38;;
30458;SDS011;74163;50.912;6.918;2024-03-07T01:28:47;49.53;;;29.55;;
30458;SDS011;74163;50.912;6.918;2024-03-07T01:29:19;49.85;;;29.83;;
30458;SDS011;74163;50.912;6.918;2024-03-07T01:29:51;52.70;;;31.20;;
30458;SDS011;74163;50.912;6.918;2024-03-07T01:30:23;50.53;;;30.85;;
30458;SDS011;74163;50.912;6.918;2024-03-07T01:30:55;52.25;;;30.95;;
30458;SDS011;74163;50.912;6.918;2024-03-07T01:31:28;53.88;;;31.10;;
30458;SDS011;74163;50.912;6.918;2024-03-07T01:32:00;46.42;;;29.77;;
30458;SDS011;74163;50.912;6.918;2024-03-07T01:32:32;47.03;;;28.30;;
30458;SDS011;74163;50.912;6.918;2024-03-07T01:33:04;50.85;;;30.80;;
30458;SDS011;74163;50.912;6.918;2024-03-07T01:33:36;48.35;;;29.58;;
30458;SDS011;74163;50.912;6.918;2024-03-07T01:34:09;48.70;;;29.73;;
30458;SDS011;74163;50.912;6.918;2024-03-07T01:34:41;47.58;;;29.63;;
30458;SDS011;74163;50.912;6.918;2024-03-07T01:35:14;49.10;;;29.35;;
30458;SDS011;74163;50.912;6.918;2024-03-07T01:35:46;49.03;;;29.67;;
30458;SDS011;74163;50.912;6.918;2024-03-07T01:36:18;51.08;;;31.00;;
30458;SDS011;74163;50.912;6.918;2024-03-07T01:36:50;49.08;;;29.98;;
30458;SDS011;74163;50.912;6.918;2024-03-07T01:37:22;47.13;;;29.13;;
30458;SDS011;74163;50.912;6.918;2024-03-07T01:37:54;51.20;;;30.90;;
30458;SDS011;74163;50.912;6.918;2024-03-07T01:38:26;47.70;;;29.77;;
30458;SDS011;74163;50.912;6.918;2024-03-07T01:38:59;50.40;;;30.57;;
30458;SDS011;74163;50.912;6.918;2024-03-07T01:39:31;55.05;;;30.90;;
30458;SDS011;74163;50.912;6.918;2024-03-07T01:40:03;52.75;;;31.38;;
30458;SDS011;74163;50.912;6.918;2024-03-07T01:40:36;46.17;;;29.55;;
30458;SDS011;74163;50.912;6.918;2024-03-07T01:41:11;46.75;;;28.73;;
30458;SDS011;74163;50.912;6.918;2024-03-07T01:41:44;49.35;;;29.65;;
30458;SDS011;74163;50.912;6.918;2024-03-07T01:42:17;48.40;;;29.25;;
30458;SDS011;74163;50.912;6.918;2024-03-07T01:42:50;47.15;;;29.65;;
30458;SDS011;74163;50.912;6.918;2024-03-07T01:43:22;47.70;;;29.10;;
30458;SDS011;74163;50.912;6.918;2024-03-07T01:43:54;47.70;;;29.63;;
30458;SDS011;74163;50.912;6.918;2024-03-07T01:44:27;42.53;;;27.07;;
30458;SDS011;74163;50.912;6.918;2024-03-07T01:44:59;45.47;;;28.27;;
30458;SDS011;74163;50.912;6.918;2024-03-07T01:45:31;46.53;;;28.25;;
30458;SDS011;74163;50.912;6.918;2024-03-07T01:46:03;54.20;;;32.20;;
30458;SDS011;74163;50.912;6.918;2024-03-07T01:46:35;49.42;;;31.02;;
30458;SDS011;74163;50.912;6.918;2024-03-07T01:47:07;47.50;;;28.23;;
30458;SDS011;74163;50.912;6.918;2024-03-07T01:47:39;43.30;;;27.05;;
30458;SDS011;74163;50.912;6.918;2024-03-07T01:48:11;44.25;;;27.92;;
30458;SDS011;74163;50.912;6.918;2024-03-07T01:48:50;44.90;;;27.77;;
30458;SDS011;74163;50.912;6.918;2024-03-07T01:49:22;43.33;;;27.63;;
30458;SDS011;74163;50.912;6.918;2024-03-07T01:49:53;45.33;;;27.05;;
30458;SDS011;74163;50.912;6.918;2024-03-07T01:50:25;45.03;;;27.40;;
30458;SDS011;74163;50.912;6.918;2024-03-07T01:50:58;48.03;;;29.13;;
30458;SDS011;74163;50.912;6.918;2024-03-07T01:51:30;45.80;;;29.90;;
30458;SDS011;74163;50.912;6.918;2024-03-07T01:52:02;48.10;;;29.70;;
30458;SDS011;74163;50.912;6.918;2024-03-07T01:52:35;43.78;;;29.20;;
30458;SDS011;74163;50.912;6.918;2024-03-07T01:53:11;49.58;;;30.35;;
30458;SDS011;74163;50.912;6.918;2024-03-07T01:53:44;52.40;;;31.70;;
30458;SDS011;74163;50.912;6.918;2024-03-07T01:54:16;48.70;;;30.48;;
30458;SDS011;74163;50.912;6.918;2024-03-07T01:54:49;49.90;;;31.33;;
30458;SDS011;74163;50.912;6.918;2024-03-07T01:55:21;49.45;;;29.42;;
30458;SDS011;74163;50.912;6.918;2024-03-07T01:55:53;49.30;;;29.38;;
30458;SDS011;74163;50.912;6.918;2024-03-07T01:56:26;47.92;;;29.27;;
30458;SDS011;74163;50.912;6.918;2024-03-07T01:56:58;49.08;;;28.48;;
30458;SDS011;74163;50.912;6.918;2024-03-07T01:57:30;50.10;;;30.88;;
30458;SDS011;74163;50.912;6.918;2024-03-07T01:58:05;50.10;;;29.42;;
30458;SDS011;74163;50.912;6.918;2024-03-07T01:58:39;45.78;;;28.98;;
30458;SDS011;74163;50.912;6.918;2024-03-07T01:59:13;47.20;;;29.08;;
30458;SDS011;74163;50.912;6.918;2024-03-07T01:59:46;49.77;;;29.70;;
30458;SDS011;74163;50.912;6.918;2024-03-07T02:00:19;48.60;;;28.83;;
30458;SDS011;74163;50.912;6.918;2024-03-07T02:00:52;48.28;;;28.70;;
30458;SDS011;74163;50.912;6.918;2024-03-07T02:01:24;45.22;;;28.33;;
30458;SDS011;74163;50.912;6.918;2024-03-07T02:01:57;47.67;;;27.85;;
30458;SDS011;74163;50.912;6.918;2024-03-07T02:02:29;44.55;;;27.27;;
30458;SDS011;74163;50.912;6.918;2024-03-07T02:03:01;47.20;;;29.65;;
30458;SDS011;74163;50.912;6.918;2024-03-07T02:03:33;50.80;;;31.10;;
30458;SDS011;74163;50.912;6.918;2024-03-07T02:04:06;50.40;;;30.65;;
30458;SDS011;74163;50.912;6.918;2024-03-07T02:04:40;51.17;;;30.73;;
30458;SDS011;74163;50.912;6.918;2024-03-07T02:05:13;47.67;;;28.87;;
30458;SDS011;74163;50.912;6.918;2024-03-07T02:05:46;48.30;;;29.17;;
30458;SDS011;74163;50.912;6.918;2024-03-07T02:06:18;48.83;;;30.98;;
30458;SDS011;74163;50.912;6.918;2024-03-07T02:06:50;49.88;;;31.25;;
30458;SDS011;74163;50.912;6.918;2024-03-07T02:07:22;48.08;;;29.38;;
30458;SDS011;74163;50.912;6.918;2024-03-07T02:07:54;48.30;;;29.90;;
30458;SDS011;74163;50.912;6.918;2024-03-07T02:08:26;51.15;;;31.05;;
30458;SDS011;74163;50.912;6.918;2024-03-07T02:08:58;50.53;;;31.65;;
30458;SDS011;74163;50.912;6.918;2024-03-07T02:09:30;51.38;;;30.85;;
30458;SDS011;74163;50.912;6.918;2024-03-07T02:10:02;50.20;;;30.60;;
30458;SDS011;74163;50.912;6.918;2024-03-07T02:10:35;56.22;;;32.72;;
30458;SDS011;74163;50.912;6.918;2024-03-07T02:11:07;48.97;;;30.20;;
30458;SDS011;74163;50.912;6.918;2024-03-07T02:11:39;50.38;;;30.65;;
30458;SDS011;74163;50.912;6.918;2024-03-07T02:12:11;50.90;;;30.48;;
30458;SDS011;74163;50.912;6.918;2024-03-07T02:12:43;48.15;;;30.45;;
30458;SDS011;74163;50.912;6.918;2024-03-07T02:13:16;50.00;;;29.55;;
30458;SDS011;74163;50.912;6.918;2024-03-07T02:13:48;46.42;;;28.73;;
30458;SDS011;74163;50.912;6.918;2024-03-07T02:14:20;47.33;;;27.53;;
30458;SDS011;74163;50.912;6.918;2024-03-07T02:14:52;49.88;;;29.90;;
30458;SDS011;74163;50.912;6.918;2024-03-07T02:15:24;47.35;;;29.50;;
30458;SDS011;74163;50.912;6.918;2024-03-07T02:15:56;46.55;;;28.60;;
30458;SDS011;74163;50.912;6.918;2024-03-07T02:16:27;45.97;;;28.83;;
30458;SDS011;74163;50.912;6.918;2024-03-07T02:17:00;46.08;;;28.38;;
30458;SDS011;74163;50.912;6.918;2024-03-07T02:17:31;47.65;;;28.88;;
30458;SDS011;74163;50.912;6.918;2024-03-07T02:18:04;46.20;;;28.63;;
30458;SDS011;74163;50.912;6.918;2024-03-07T02:18:36;45.30;;;27.77;;
30458;SDS011;74163;50.912;6.918;2024-03-07T02:19:09;45.88;;;28.33;;
30458;SDS011;74163;50.912;6.918;2024-03-07T02:19:45;41.33;;;26.50;;
30458;SDS011;74163;50.912;6.918;2024-03-07T02:20:16;45.33;;;28.38;;
30458;SDS011;74163;50.912;6.918;2024-03-07T02:20:50;50.90;;;29.83;;
30458;SDS011;74163;50.912;6.918;2024-03-07T02:21:22;48.38;;;28.45;;
30458;SDS011;74163;50.912;6.918;2024-03-07T02:21:54;49.25;;;29.23;;
30458;SDS011;74163;50.912;6.918;2024-03-07T02:22:26;46.05;;;28.73;;
30458;SDS011;74163;50.912;6.918;2024-03-07T02:22:58;46.15;;;28.70;;
30458;SDS011;74163;50.912;6.918;2024-03-07T02:23:30;42.97;;;27.75;;
30458;SDS011;74163;50.912;6.918;2024-03-07T02:24:02;46.23;;;27.70;;
30458;SDS011;74163;50.912;6.918;2024-03-07T02:24:34;45.22;;;28.42;;
30458;SDS011;74163;50.912;6.918;2024-03-07T02:25:06;45.70;;;27.73;;
30458;SDS011;74163;50.912;6.918;2024-03-07T02:25:38;47.45;;;28.42;;
30458;SDS011;74163;50.912;6.918;2024-03-07T02:26:10;46.47;;;28.55;;
30458;SDS011;74163;50.912;6.918;2024-03-07T02:26:42;50.92;;;29.77;;
30458;SDS011;74163;50.912;6.918;2024-03-07T02:27:14;46.28;;;29.52;;
30458;SDS011;74163;50.912;6.918;2024-03-07T02:27:46;44.67;;;28.25;;
30458;SDS011;74163;50.912;6.918;2024-03-07T02:28:18;41.70;;;27.48;;
30458;SDS011;74163;50.912;6.918;2024-03-07T02:28:50;44.58;;;26.88;;
30458;SDS011;74163;50.912;6.918;2024-03-07T02:29:22;43.25;;;26.92;;
30458;SDS011;74163;50.912;6.918;2024-03-07T02:29:53;45.03;;;27.30;;
30458;SDS011;74163;50.912;6.918;2024-03-07T02:30:25;43.90;;;27.10;;
30458;SDS011;74163;50.912;6.918;2024-03-07T02:30:57;43.83;;;26.95;;
30458;SDS011;74163;50.912;6.918;2024-03-07T02:31:29;49.20;;;29.55;;
30458;SDS011;74163;50.912;6.918;2024-03-07T02:32:01;46.78;;;30.00;;
30458;SDS011;74163;50.912;6.918;2024-03-07T02:32:33;48.38;;;29.67;;
30458;SDS011;74163;50.912;6.918;2024-03-07T02:33:05;46.80;;;28.63;;
30458;SDS011;74163;50.912;6.918;2024-03-07T02:33:37;46.53;;;28.90;;
30458;SDS011;74163;50.912;6.918;2024-03-07T02:34:09;46.72;;;29.33;;
30458;SDS011;74163;50.912;6.918;2024-03-07T02:34:40;46.60;;;28.67;;
30458;SDS011;74163;50.912;6.918;2024-03-07T02:35:12;47.70;;;29.55;;
30458;SDS011;74163;50.912;6.918;2024-03-07T02:35:44;46.38;;;28.05;;
30458;SDS011;74163;50.912;6.918;2024-03-07T02:36:17;46.40;;;27.90;;
30458;SDS011;74163;50.912;6.918;2024-03-07T02:36:49;42.90;;;28.08;;
30458;SDS011;74163;50.912;6.918;2024-03-07T02:37:21;45.72;;;28.88;;
30458;SDS011;74163;50.912;6.918;2024-03-07T02:37:53;48.33;;;28.83;;
30458;SDS011;74163;50.912;6.918;2024-03-07T02:38:25;44.45;;;27.83;;
30458;SDS011;74163;50.912;6.918;2024-03-07T02:38:57;48.20;;;28.83;;
30458;SDS011;74163;50.912;6.918;2024-03-07T02:39:30;45.53;;;28.80;;
30458;SDS011;74163;50.912;6.918;2024-03-07T02:40:02;48.10;;;30.08;;
30458;SDS011;74163;50.912;6.918;2024-03-07T02:40:34;46.58;;;28.98;;
30458;SDS011;74163;50.912;6.918;2024-03-07T02:41:06;48.25;;;30.25;;
30458;SDS011;74163;50.912;6.918;2024-03-07T02:41:38;44.97;;;28.98;;
30458;SDS011;74163;50.912;6.918;2024-03-07T02:42:10;45.00;;;27.40;;
30458;SDS011;74163;50.912;6.918;2024-03-07T02:42:42;40.85;;;26.80;;
30458;SDS011;74163;50.912;6.918;2024-03-07T02:43:14;42.30;;;27.08;;
30458;SDS011;74163;50.912;6.918;2024-03-07T02:43:46;40.95;;;26.02;;
30458;SDS011;74163;50.912;6.918;2024-03-07T02:44:18;41.08;;;25.98;;
30458;SDS011;74163;50.912;6.918;2024-03-07T02:44:50;45.40;;;27.55;;
30458;SDS011;74163;50.912;6.918;2024-03-07T02:45:22;45.63;;;28.42;;
30458;SDS011;74163;50.912;6.918;2024-03-07T02:45:54;45.38;;;27.50;;
30458;SDS011;74163;50.912;6.918;2024-03-07T02:46:26;44.20;;;27.80;;
30458;SDS011;74163;50.912;6.918;2024-03-07T02:46:58;45.05;;;28.42;;
30458;SDS011;74163;50.912;6.918;2024-03-07T02:47:30;44.50;;;28.30;;
30458;SDS011;74163;50.912;6.918;2024-03-07T02:48:03;52.03;;;30.17;;
30458;SDS011;74163;50.912;6.918;2024-03-07T02:48:36;46.00;;;28.48;;
30458;SDS011;74163;50.912;6.918;2024-03-07T02:49:10;47.20;;;28.65;;
30458;SDS011;74163;50.912;6.918;2024-03-07T02:49:41;47.37;;;29.77;;
30458;SDS011;74163;50.912;6.918;2024-03-07T02:50:14;45.67;;;27.77;;
30458;SDS011;74163;50.912;6.918;2024-03-07T02:50:47;46.72;;;28.10;;
30458;SDS011;74163;50.912;6.918;2024-03-07T02:51:20;46.10;;;27.88;;
30458;SDS011;74163;50.912;6.918;2024-03-07T02:51:52;45.78;;;28.15;;
30458;SDS011;74163;50.912;6.918;2024-03-07T02:52:24;44.15;;;27.65;;
30458;SDS011;74163;50.912;6.918;2024-03-07T02:52:56;45.23;;;27.67;;
30458;SDS011;74163;50.912;6.918;2024-03-07T02:53:29;43.80;;;27.17;;
30458;SDS011;74163;50.912;6.918;2024-03-07T02:54:01;42.97;;;27.73;;
30458;SDS011;74163;50.912;6.918;2024-03-07T02:54:33;42.58;;;27.27;;
30458;SDS011;74163;50.912;6.918;2024-03-07T02:55:05;41.05;;;25.73;;
30458;SDS011;74163;50.912;6.918;2024-03-07T02:55:38;42.40;;;26.33;;
30458;SDS011;74163;50.912;6.918;2024-03-07T02:56:09;41.55;;;25.45;;
30458;SDS011;74163;50.912;6.918;2024-03-07T02:56:42;43.10;;;26.42;;
30458;SDS011;74163;50.912;6.918;2024-03-07T02:57:13;38.50;;;25.38;;
30458;SDS011;74163;50.912;6.918;2024-03-07T02:57:49;39.67;;;26.35;;
30458;SDS011;74163;50.912;6.918;2024-03-07T02:58:22;40.35;;;26.00;;
30458;SDS011;74163;50.912;6.918;2024-03-07T02:58:54;42.95;;;26.20;;
30458;SDS011;74163;50.912;6.918;2024-03-07T02:59:26;42.83;;;26.67;;
30458;SDS011;74163;50.912;6.918;2024-03-07T02:59:59;39.23;;;25.90;;
30458;SDS011;74163;50.912;6.918;2024-03-07T03:00:32;39.30;;;24.85;;
30458;SDS011;74163;50.912;6.918;2024-03-07T03:01:04;42.78;;;27.92;;
30458;SDS011;74163;50.912;6.918;2024-03-07T03:01:36;49.40;;;29.10;;
30458;SDS011;74163;50.912;6.918;2024-03-07T03:02:08;45.70;;;27.70;;
30458;SDS011;74163;50.912;6.918;2024-03-07T03:02:40;43.63;;;26.33;;
30458;SDS011;74163;50.912;6.918;2024-03-07T03:03:12;45.80;;;28.17;;
30458;SDS011;74163;50.912;6.918;2024-03-07T03:03:44;44.95;;;27.90;;
30458;SDS011;74163;50.912;6.918;2024-03-07T03:04:16;44.63;;;27.38;;
30458;SDS011;74163;50.912;6.918;2024-03-07T03:04:48;45.97;;;28.15;;
30458;SDS011;74163;50.912;6.918;2024-03-07T03:05:20;47.75;;;28.77;;
30458;SDS011;74163;50.912;6.918;2024-03-07T03:05:53;43.13;;;26.55;;
30458;SDS011;74163;50.912;6.918;2024-03-07T03:06:27;45.50;;;27.55;;
30458;SDS011;74163;50.912;6.918;2024-03-07T03:06:59;39.50;;;25.83;;
30458;SDS011;74163;50.912;6.918;2024-03-07T03:07:31;44.15;;;26.92;;
30458;SDS011;74163;50.912;6.918;2024-03-07T03:08:04;45.83;;;27.90;;
30458;SDS011;74163;50.912;6.918;2024-03-07T03:08:36;43.08;;;26.95;;